sensor_id;sensor_type;location;lat;lon;timestamp;P1;durP1;ratioP1;P2;durP2;ratioP2
59486;SDS011;45298;54.918;73.504;2023-01-23T00:01:43;15.05;;;5.93;;
59486;SDS011;45298;54.918;73.504;2023-01-23T00:04:12;12.55;;;3.65;;
59486;SDS011;45298;54.918;73.504;2023-01-23T00:06:42;20.65;;;7.93;;
59486;SDS011;45298;54.918;73.504;2023-01-23T00:09:12;15.35;;;6.03;;
59486;SDS011;45298;54.918;73.504;2023-01-23T00:11:41;13.30;;;5.72;;
59486;SDS011;45298;54.918;73.504;2023-01-23T00:14:09;24.58;;;7.65;;
59486;SDS011;45298;54.918;73.504;2023-01-23T00:16:38;16.77;;;6.25;;
59486;SDS011;45298;54.918;73.504;2023-01-23T00:19:08;16.85;;;6.22;;
59486;SDS011;45298;54.918;73.504;2023-01-23T00:21:37;16.13;;;5.95;;
59486;SDS011;45298;54.918;73.504;2023-01-23T00:24:06;14.70;;;5.28;;
59486;SDS011;45298;54.918;73.504;2023-01-23T00:26:37;13.73;;;5.45;;
59486;SDS011;45298;54.918;73.504;2023-01-23T00:29:07;16.00;;;6.50;;
59486;SDS011;45298;54.918;73.504;2023-01-23T00:31:36;16.27;;;5.57;;
59486;SDS011;45298;54.918;73.504;2023-01-23T00:34:11;17.33;;;6.25;;
59486;SDS011;45298;54.918;73.504;2023-01-23T00:36:41;17.45;;;6.90;;
59486;SDS011;45298;54.918;73.504;2023-01-23T00:39:15;19.45;;;6.60;;
59486;SDS011;45298;54.918;73.504;2023-01-23T00:41:47;16.38;;;6.35;;
59486;SDS011;45298;54.918;73.504;2023-01-23T00:44:16;21.58;;;7.32;;
59486;SDS011;45298;54.918;73.504;2023-01-23T00:46:45;19.92;;;6.88;;
59486;SDS011;45298;54.918;73.504;2023-01-23T00:49:16;18.58;;;6.63;;
59486;SDS011;45298;54.918;73.504;2023-01-23T00:51:45;26.70;;;8.85;;
59486;SDS011;45298;54.918;73.504;2023-01-23T00:54:14;20.17;;;7.70;;
59486;SDS011;45298;54.918;73.504;2023-01-23T00:56:44;19.73;;;6.60;;
59486;SDS011;45298;54.918;73.504;2023-01-23T00:59:13;19.02;;;7.30;;
59486;SDS011;45298;54.918;73.504;2023-01-23T01:01:45;18.70;;;6.75;;
59486;SDS011;45298;54.918;73.504;2023-01-23T01:04:14;20.40;;;8.20;;
59486;SDS011;45298;54.918;73.504;2023-01-23T01:06:43;14.60;;;5.65;;
59486;SDS011;45298;54.918;73.504;2023-01-23T01:09:12;18.02;;;6.82;;
59486;SDS011;45298;54.918;73.504;2023-01-23T01:11:42;14.32;;;5.88;;
59486;SDS011;45298;54.918;73.504;2023-01-23T01:14:11;18.77;;;7.25;;
59486;SDS011;45298;54.918;73.504;2023-01-23T01:16:40;21.55;;;7.32;;
59486;SDS011;45298;54.918;73.504;2023-01-23T01:19:14;34.20;;;9.70;;
59486;SDS011;45298;54.918;73.504;2023-01-23T01:21:44;31.88;;;9.65;;
59486;SDS011;45298;54.918;73.504;2023-01-23T01:24:13;20.85;;;7.30;;
59486;SDS011;45298;54.918;73.504;2023-01-23T01:26:42;47.30;;;14.30;;
59486;SDS011;45298;54.918;73.504;2023-01-23T01:29:11;122.13;;;35.92;;
59486;SDS011;45298;54.918;73.504;2023-01-23T01:31:42;24.45;;;8.88;;
59486;SDS011;45298;54.918;73.504;2023-01-23T01:34:11;18.40;;;7.30;;
59486;SDS011;45298;54.918;73.504;2023-01-23T01:36:41;30.67;;;10.88;;
59486;SDS011;45298;54.918;73.504;2023-01-23T01:39:11;19.02;;;7.88;;
59486;SDS011;45298;54.918;73.504;2023-01-23T01:41:40;16.55;;;7.22;;
59486;SDS011;45298;54.918;73.504;2023-01-23T01:44:12;19.05;;;6.82;;
59486;SDS011;45298;54.918;73.504;2023-01-23T01:46:49;27.77;;;9.85;;
59486;SDS011;45298;54.918;73.504;2023-01-23T01:49:29;30.23;;;8.80;;
59486;SDS011;45298;54.918;73.504;2023-01-23T01:57:13;38.60;;;13.23;;
59486;SDS011;45298;54.918;73.504;2023-01-23T01:59:50;25.58;;;9.13;;
59486;SDS011;45298;54.918;73.504;2023-01-23T02:02:28;27.98;;;8.30;;
59486;SDS011;45298;54.918;73.504;2023-01-23T02:05:02;14.00;;;6.10;;
59486;SDS011;45298;54.918;73.504;2023-01-23T02:07:39;20.50;;;7.07;;
59486;SDS011;45298;54.918;73.504;2023-01-23T02:10:13;26.73;;;6.10;;
59486;SDS011;45298;54.918;73.504;2023-01-23T02:12:45;33.15;;;9.35;;
59486;SDS011;45298;54.918;73.504;2023-01-23T02:15:15;61.45;;;14.13;;
59486;SDS011;45298;54.918;73.504;2023-01-23T02:17:45;76.10;;;19.73;;
59486;SDS011;45298;54.918;73.504;2023-01-23T02:20:23;53.55;;;16.15;;
59486;SDS011;45298;54.918;73.504;2023-01-23T02:23:16;56.88;;;16.63;;
59486;SDS011;45298;54.918;73.504;2023-01-23T02:31:32;46.78;;;12.05;;
59486;SDS011;45298;54.918;73.504;2023-01-23T02:34:03;44.70;;;11.93;;
59486;SDS011;45298;54.918;73.504;2023-01-23T02:36:33;38.92;;;10.18;;
59486;SDS011;45298;54.918;73.504;2023-01-23T02:39:06;33.63;;;10.02;;
59486;SDS011;45298;54.918;73.504;2023-01-23T02:41:39;31.30;;;10.52;;
59486;SDS011;45298;54.918;73.504;2023-01-23T02:44:16;28.92;;;10.38;;
59486;SDS011;45298;54.918;73.504;2023-01-23T02:47:00;32.10;;;11.30;;
59486;SDS011;45298;54.918;73.504;2023-01-23T02:49:31;25.55;;;8.90;;
59486;SDS011;45298;54.918;73.504;2023-01-23T02:52:02;36.97;;;12.82;;
59486;SDS011;45298;54.918;73.504;2023-01-23T02:54:34;39.40;;;12.50;;
59486;SDS011;45298;54.918;73.504;2023-01-23T02:57:03;32.75;;;10.75;;
59486;SDS011;45298;54.918;73.504;2023-01-23T02:59:32;26.00;;;9.75;;
59486;SDS011;45298;54.918;73.504;2023-01-23T03:02:19;40.92;;;14.70;;
59486;SDS011;45298;54.918;73.504;2023-01-23T03:04:48;20.70;;;8.10;;
59486;SDS011;45298;54.918;73.504;2023-01-23T03:07:18;28.42;;;10.30;;
59486;SDS011;45298;54.918;73.504;2023-01-23T03:09:47;37.20;;;11.95;;
59486;SDS011;45298;54.918;73.504;2023-01-23T03:12:16;31.15;;;9.70;;
59486;SDS011;45298;54.918;73.504;2023-01-23T03:14:48;30.38;;;10.45;;
59486;SDS011;45298;54.918;73.504;2023-01-23T03:17:21;37.17;;;13.48;;
59486;SDS011;45298;54.918;73.504;2023-01-23T03:19:51;35.10;;;11.55;;
59486;SDS011;45298;54.918;73.504;2023-01-23T03:22:20;132.10;;;28.45;;
59486;SDS011;45298;54.918;73.504;2023-01-23T03:24:48;85.70;;;28.48;;
59486;SDS011;45298;54.918;73.504;2023-01-23T03:27:21;92.55;;;31.38;;
59486;SDS011;45298;54.918;73.504;2023-01-23T03:29:53;92.38;;;27.60;;
59486;SDS011;45298;54.918;73.504;2023-01-23T03:32:41;45.85;;;16.60;;
59486;SDS011;45298;54.918;73.504;2023-01-23T03:35:12;61.30;;;23.85;;
59486;SDS011;45298;54.918;73.504;2023-01-23T03:37:43;65.30;;;20.98;;
59486;SDS011;45298;54.918;73.504;2023-01-23T03:40:15;32.67;;;12.05;;
59486;SDS011;45298;54.918;73.504;2023-01-23T03:43:09;49.70;;;17.65;;
59486;SDS011;45298;54.918;73.504;2023-01-23T03:45:43;46.40;;;16.47;;
59486;SDS011;45298;54.918;73.504;2023-01-23T03:48:12;48.30;;;18.23;;
59486;SDS011;45298;54.918;73.504;2023-01-23T03:50:42;37.75;;;12.43;;
59486;SDS011;45298;54.918;73.504;2023-01-23T03:53:11;32.67;;;13.65;;
59486;SDS011;45298;54.918;73.504;2023-01-23T03:55:40;59.28;;;21.30;;
59486;SDS011;45298;54.918;73.504;2023-01-23T03:58:11;47.92;;;17.45;;
59486;SDS011;45298;54.918;73.504;2023-01-23T04:00:43;42.38;;;15.38;;
59486;SDS011;45298;54.918;73.504;2023-01-23T04:03:15;46.72;;;17.80;;
59486;SDS011;45298;54.918;73.504;2023-01-23T04:05:43;43.92;;;16.63;;
59486;SDS011;45298;54.918;73.504;2023-01-23T04:08:14;53.85;;;18.85;;
59486;SDS011;45298;54.918;73.504;2023-01-23T04:10:42;51.70;;;18.17;;
59486;SDS011;45298;54.918;73.504;2023-01-23T04:13:15;43.60;;;15.63;;
59486;SDS011;45298;54.918;73.504;2023-01-23T04:15:44;34.92;;;13.25;;
59486;SDS011;45298;54.918;73.504;2023-01-23T04:18:14;59.38;;;20.50;;
59486;SDS011;45298;54.918;73.504;2023-01-23T04:20:42;50.63;;;16.92;;
59486;SDS011;45298;54.918;73.504;2023-01-23T04:23:12;72.90;;;22.23;;
59486;SDS011;45298;54.918;73.504;2023-01-23T04:25:41;73.18;;;24.05;;
59486;SDS011;45298;54.918;73.504;2023-01-23T04:28:12;96.47;;;27.83;;
59486;SDS011;45298;54.918;73.504;2023-01-23T04:30:42;78.57;;;27.30;;
59486;SDS011;45298;54.918;73.504;2023-01-23T04:33:20;83.53;;;27.05;;
59486;SDS011;45298;54.918;73.504;2023-01-23T04:35:52;73.03;;;25.30;;
59486;SDS011;45298;54.918;73.504;2023-01-23T04:38:28;50.85;;;18.27;;
59486;SDS011;45298;54.918;73.504;2023-01-23T04:41:09;50.10;;;17.50;;
59486;SDS011;45298;54.918;73.504;2023-01-23T04:43:58;51.15;;;18.38;;
59486;SDS011;45298;54.918;73.504;2023-01-23T04:47:05;50.03;;;15.65;;
59486;SDS011;45298;54.918;73.504;2023-01-23T04:49:34;58.22;;;20.00;;
59486;SDS011;45298;54.918;73.504;2023-01-23T04:52:03;48.47;;;17.63;;
59486;SDS011;45298;54.918;73.504;2023-01-23T04:54:36;47.03;;;17.70;;
59486;SDS011;45298;54.918;73.504;2023-01-23T04:57:05;40.22;;;15.27;;
59486;SDS011;45298;54.918;73.504;2023-01-23T04:59:34;67.07;;;25.77;;
59486;SDS011;45298;54.918;73.504;2023-01-23T05:02:02;72.55;;;23.63;;
59486;SDS011;45298;54.918;73.504;2023-01-23T05:04:38;56.17;;;19.85;;
59486;SDS011;45298;54.918;73.504;2023-01-23T05:07:06;55.05;;;18.65;;
59486;SDS011;45298;54.918;73.504;2023-01-23T05:09:44;51.13;;;20.13;;
59486;SDS011;45298;54.918;73.504;2023-01-23T05:12:14;41.47;;;17.10;;
59486;SDS011;45298;54.918;73.504;2023-01-23T05:14:43;27.80;;;12.23;;
59486;SDS011;45298;54.918;73.504;2023-01-23T05:17:12;31.48;;;13.55;;
59486;SDS011;45298;54.918;73.504;2023-01-23T05:19:45;32.38;;;13.13;;
59486;SDS011;45298;54.918;73.504;2023-01-23T05:22:14;27.40;;;12.13;;
59486;SDS011;45298;54.918;73.504;2023-01-23T05:24:44;31.38;;;12.65;;
59486;SDS011;45298;54.918;73.504;2023-01-23T05:27:14;38.45;;;14.48;;
59486;SDS011;45298;54.918;73.504;2023-01-23T05:29:46;25.90;;;11.45;;
59486;SDS011;45298;54.918;73.504;2023-01-23T05:32:19;28.20;;;12.93;;
59486;SDS011;45298;54.918;73.504;2023-01-23T05:34:53;25.65;;;11.55;;
59486;SDS011;45298;54.918;73.504;2023-01-23T05:37:25;31.50;;;13.18;;
59486;SDS011;45298;54.918;73.504;2023-01-23T05:40:04;38.45;;;15.35;;
59486;SDS011;45298;54.918;73.504;2023-01-23T05:43:04;33.45;;;13.27;;
59486;SDS011;45298;54.918;73.504;2023-01-23T05:46:11;35.50;;;14.00;;
59486;SDS011;45298;54.918;73.504;2023-01-23T05:48:47;41.63;;;16.98;;
59486;SDS011;45298;54.918;73.504;2023-01-23T05:51:19;32.33;;;13.82;;
59486;SDS011;45298;54.918;73.504;2023-01-23T05:53:49;24.17;;;9.43;;
59486;SDS011;45298;54.918;73.504;2023-01-23T05:56:18;26.00;;;11.63;;
59486;SDS011;45298;54.918;73.504;2023-01-23T05:59:07;29.70;;;10.85;;
59486;SDS011;45298;54.918;73.504;2023-01-23T06:01:48;40.70;;;13.07;;
59486;SDS011;45298;54.918;73.504;2023-01-23T06:04:35;34.00;;;13.07;;
59486;SDS011;45298;54.918;73.504;2023-01-23T06:07:18;38.92;;;14.65;;
59486;SDS011;45298;54.918;73.504;2023-01-23T06:09:50;35.15;;;13.73;;
59486;SDS011;45298;54.918;73.504;2023-01-23T06:12:19;35.22;;;13.65;;
59486;SDS011;45298;54.918;73.504;2023-01-23T06:14:50;40.67;;;16.98;;
59486;SDS011;45298;54.918;73.504;2023-01-23T06:17:19;61.58;;;22.05;;
59486;SDS011;45298;54.918;73.504;2023-01-23T06:19:47;54.15;;;21.02;;
59486;SDS011;45298;54.918;73.504;2023-01-23T06:22:16;38.08;;;14.48;;
59486;SDS011;45298;54.918;73.504;2023-01-23T06:24:57;41.45;;;15.43;;
59486;SDS011;45298;54.918;73.504;2023-01-23T06:27:27;43.45;;;16.17;;
59486;SDS011;45298;54.918;73.504;2023-01-23T06:29:56;54.17;;;16.73;;
59486;SDS011;45298;54.918;73.504;2023-01-23T06:32:25;33.70;;;13.23;;
59486;SDS011;45298;54.918;73.504;2023-01-23T06:34:53;49.00;;;14.63;;
59486;SDS011;45298;54.918;73.504;2023-01-23T06:37:22;48.30;;;16.25;;
59486;SDS011;45298;54.918;73.504;2023-01-23T06:39:51;28.15;;;12.15;;
59486;SDS011;45298;54.918;73.504;2023-01-23T06:42:23;34.42;;;14.68;;
59486;SDS011;45298;54.918;73.504;2023-01-23T06:44:52;33.30;;;13.48;;
59486;SDS011;45298;54.918;73.504;2023-01-23T06:47:23;45.28;;;15.25;;
59486;SDS011;45298;54.918;73.504;2023-01-23T06:49:58;46.60;;;14.88;;
59486;SDS011;45298;54.918;73.504;2023-01-23T06:52:32;41.72;;;16.88;;
59486;SDS011;45298;54.918;73.504;2023-01-23T06:55:01;30.65;;;11.00;;
59486;SDS011;45298;54.918;73.504;2023-01-23T06:57:32;34.03;;;11.00;;
59486;SDS011;45298;54.918;73.504;2023-01-23T07:00:02;42.42;;;13.55;;
59486;SDS011;45298;54.918;73.504;2023-01-23T07:02:32;37.75;;;14.45;;
59486;SDS011;45298;54.918;73.504;2023-01-23T07:05:01;72.40;;;18.55;;
59486;SDS011;45298;54.918;73.504;2023-01-23T07:07:29;52.50;;;16.27;;
59486;SDS011;45298;54.918;73.504;2023-01-23T07:09:58;41.13;;;12.63;;
59486;SDS011;45298;54.918;73.504;2023-01-23T07:12:28;48.33;;;17.75;;
59486;SDS011;45298;54.918;73.504;2023-01-23T07:14:56;37.22;;;11.18;;
59486;SDS011;45298;54.918;73.504;2023-01-23T07:17:32;75.03;;;17.63;;
59486;SDS011;45298;54.918;73.504;2023-01-23T07:20:01;73.07;;;21.88;;
59486;SDS011;45298;54.918;73.504;2023-01-23T07:22:32;94.65;;;25.75;;
59486;SDS011;45298;54.918;73.504;2023-01-23T07:25:00;58.83;;;20.90;;
59486;SDS011;45298;54.918;73.504;2023-01-23T07:27:29;65.43;;;17.38;;
59486;SDS011;45298;54.918;73.504;2023-01-23T07:29:57;61.92;;;17.90;;
59486;SDS011;45298;54.918;73.504;2023-01-23T07:32:26;66.32;;;16.33;;
59486;SDS011;45298;54.918;73.504;2023-01-23T07:34:55;52.03;;;16.90;;
59486;SDS011;45298;54.918;73.504;2023-01-23T07:37:24;75.55;;;22.30;;
59486;SDS011;45298;54.918;73.504;2023-01-23T07:39:52;53.05;;;17.95;;
59486;SDS011;45298;54.918;73.504;2023-01-23T07:42:21;54.50;;;15.73;;
59486;SDS011;45298;54.918;73.504;2023-01-23T07:44:51;34.40;;;12.40;;
59486;SDS011;45298;54.918;73.504;2023-01-23T07:47:19;42.85;;;14.52;;
59486;SDS011;45298;54.918;73.504;2023-01-23T07:49:48;38.08;;;13.70;;
59486;SDS011;45298;54.918;73.504;2023-01-23T07:52:17;49.67;;;16.17;;
59486;SDS011;45298;54.918;73.504;2023-01-23T07:54:46;34.55;;;13.52;;
59486;SDS011;45298;54.918;73.504;2023-01-23T07:57:14;34.60;;;13.70;;
59486;SDS011;45298;54.918;73.504;2023-01-23T07:59:43;42.40;;;12.80;;
59486;SDS011;45298;54.918;73.504;2023-01-23T08:02:11;33.13;;;12.10;;
59486;SDS011;45298;54.918;73.504;2023-01-23T08:04:40;56.90;;;18.42;;
59486;SDS011;45298;54.918;73.504;2023-01-23T08:07:09;111.72;;;44.22;;
59486;SDS011;45298;54.918;73.504;2023-01-23T08:09:37;37.17;;;13.95;;
59486;SDS011;45298;54.918;73.504;2023-01-23T08:12:07;31.88;;;11.88;;
59486;SDS011;45298;54.918;73.504;2023-01-23T08:14:36;29.13;;;11.55;;
59486;SDS011;45298;54.918;73.504;2023-01-23T08:17:04;30.02;;;10.32;;
59486;SDS011;45298;54.918;73.504;2023-01-23T08:19:33;42.03;;;16.05;;
59486;SDS011;45298;54.918;73.504;2023-01-23T08:22:02;31.25;;;11.00;;
59486;SDS011;45298;54.918;73.504;2023-01-23T08:24:30;28.27;;;11.40;;
59486;SDS011;45298;54.918;73.504;2023-01-23T08:26:59;34.78;;;11.63;;
59486;SDS011;45298;54.918;73.504;2023-01-23T08:29:29;42.33;;;14.70;;
59486;SDS011;45298;54.918;73.504;2023-01-23T08:32:01;48.00;;;17.40;;
59486;SDS011;45298;54.918;73.504;2023-01-23T08:34:30;28.13;;;10.63;;
59486;SDS011;45298;54.918;73.504;2023-01-23T08:36:59;41.20;;;13.13;;
59486;SDS011;45298;54.918;73.504;2023-01-23T08:39:28;30.08;;;10.63;;
59486;SDS011;45298;54.918;73.504;2023-01-23T08:41:56;40.78;;;15.55;;
59486;SDS011;45298;54.918;73.504;2023-01-23T08:44:25;29.60;;;11.90;;
59486;SDS011;45298;54.918;73.504;2023-01-23T08:46:54;32.30;;;12.65;;
59486;SDS011;45298;54.918;73.504;2023-01-23T08:49:23;32.78;;;11.48;;
59486;SDS011;45298;54.918;73.504;2023-01-23T08:51:51;39.75;;;13.18;;
59486;SDS011;45298;54.918;73.504;2023-01-23T08:54:20;24.23;;;10.00;;
59486;SDS011;45298;54.918;73.504;2023-01-23T08:56:48;30.17;;;10.65;;
59486;SDS011;45298;54.918;73.504;2023-01-23T08:59:17;29.65;;;8.98;;
59486;SDS011;45298;54.918;73.504;2023-01-23T09:01:46;30.77;;;10.50;;
59486;SDS011;45298;54.918;73.504;2023-01-23T09:04:15;44.47;;;16.05;;
59486;SDS011;45298;54.918;73.504;2023-01-23T09:06:44;40.72;;;12.07;;
59486;SDS011;45298;54.918;73.504;2023-01-23T09:09:13;31.58;;;11.43;;
59486;SDS011;45298;54.918;73.504;2023-01-23T09:11:41;36.20;;;12.30;;
59486;SDS011;45298;54.918;73.504;2023-01-23T09:14:10;34.67;;;12.60;;
59486;SDS011;45298;54.918;73.504;2023-01-23T09:16:39;32.35;;;11.48;;
59486;SDS011;45298;54.918;73.504;2023-01-23T09:19:08;32.60;;;11.68;;
59486;SDS011;45298;54.918;73.504;2023-01-23T09:21:39;42.45;;;12.07;;
59486;SDS011;45298;54.918;73.504;2023-01-23T09:24:07;36.05;;;12.00;;
59486;SDS011;45298;54.918;73.504;2023-01-23T09:26:36;24.65;;;9.75;;
59486;SDS011;45298;54.918;73.504;2023-01-23T09:29:04;27.58;;;9.93;;
59486;SDS011;45298;54.918;73.504;2023-01-23T09:31:33;24.33;;;9.60;;
59486;SDS011;45298;54.918;73.504;2023-01-23T09:34:02;45.47;;;15.48;;
59486;SDS011;45298;54.918;73.504;2023-01-23T09:36:31;21.88;;;10.00;;
59486;SDS011;45298;54.918;73.504;2023-01-23T09:39:09;49.95;;;16.80;;
59486;SDS011;45298;54.918;73.504;2023-01-23T09:41:38;73.00;;;28.00;;
59486;SDS011;45298;54.918;73.504;2023-01-23T09:44:18;24.70;;;11.27;;
59486;SDS011;45298;54.918;73.504;2023-01-23T09:47:04;33.90;;;13.98;;
59486;SDS011;45298;54.918;73.504;2023-01-23T09:52:19;91.90;;;30.35;;
59486;SDS011;45298;54.918;73.504;2023-01-23T09:57:57;38.03;;;16.35;;
59486;SDS011;45298;54.918;73.504;2023-01-23T10:00:31;27.65;;;11.70;;
59486;SDS011;45298;54.918;73.504;2023-01-23T10:03:01;29.25;;;12.65;;
59486;SDS011;45298;54.918;73.504;2023-01-23T10:14:14;32.97;;;11.52;;
59486;SDS011;45298;54.918;73.504;2023-01-23T10:24:50;43.90;;;17.55;;
59486;SDS011;45298;54.918;73.504;2023-01-23T10:27:39;62.72;;;26.02;;
59486;SDS011;45298;54.918;73.504;2023-01-23T10:32:51;21.75;;;11.25;;
59486;SDS011;45298;54.918;73.504;2023-01-23T10:35:33;27.38;;;11.98;;
59486;SDS011;45298;54.918;73.504;2023-01-23T10:41:21;29.92;;;12.07;;
59486;SDS011;45298;54.918;73.504;2023-01-23T10:43:50;50.45;;;14.50;;
59486;SDS011;45298;54.918;73.504;2023-01-23T10:46:32;49.83;;;16.50;;
59486;SDS011;45298;54.918;73.504;2023-01-23T10:49:04;46.15;;;17.25;;
59486;SDS011;45298;54.918;73.504;2023-01-23T10:51:43;30.73;;;12.52;;
59486;SDS011;45298;54.918;73.504;2023-01-23T10:54:17;26.30;;;11.07;;
59486;SDS011;45298;54.918;73.504;2023-01-23T10:57:00;33.35;;;13.15;;
59486;SDS011;45298;54.918;73.504;2023-01-23T10:59:35;28.02;;;12.80;;
59486;SDS011;45298;54.918;73.504;2023-01-23T11:04:42;35.13;;;15.27;;
59486;SDS011;45298;54.918;73.504;2023-01-23T11:09:45;31.23;;;12.52;;
59486;SDS011;45298;54.918;73.504;2023-01-23T11:12:23;46.92;;;15.82;;
59486;SDS011;45298;54.918;73.504;2023-01-23T11:15:15;33.05;;;12.38;;
59486;SDS011;45298;54.918;73.504;2023-01-23T11:17:50;36.20;;;13.40;;
59486;SDS011;45298;54.918;73.504;2023-01-23T11:20:39;54.88;;;19.15;;
59486;SDS011;45298;54.918;73.504;2023-01-23T11:23:18;27.40;;;10.02;;
59486;SDS011;45298;54.918;73.504;2023-01-23T11:25:48;27.08;;;10.70;;
59486;SDS011;45298;54.918;73.504;2023-01-23T11:28:29;25.60;;;10.45;;
59486;SDS011;45298;54.918;73.504;2023-01-23T11:34:00;36.80;;;12.98;;
59486;SDS011;45298;54.918;73.504;2023-01-23T11:36:58;36.25;;;11.52;;
59486;SDS011;45298;54.918;73.504;2023-01-23T11:39:47;47.58;;;16.20;;
59486;SDS011;45298;54.918;73.504;2023-01-23T11:42:18;34.05;;;14.18;;
59486;SDS011;45298;54.918;73.504;2023-01-23T11:44:47;47.20;;;19.30;;
59486;SDS011;45298;54.918;73.504;2023-01-23T12:06:47;37.78;;;13.07;;
59486;SDS011;45298;54.918;73.504;2023-01-23T12:09:19;36.78;;;14.48;;
59486;SDS011;45298;54.918;73.504;2023-01-23T12:14:53;36.00;;;12.57;;
59486;SDS011;45298;54.918;73.504;2023-01-23T12:17:40;38.83;;;14.40;;
59486;SDS011;45298;54.918;73.504;2023-01-23T12:23:43;43.03;;;15.38;;
59486;SDS011;45298;54.918;73.504;2023-01-23T12:26:14;30.42;;;12.05;;
59486;SDS011;45298;54.918;73.504;2023-01-23T12:34:11;58.78;;;22.38;;
59486;SDS011;45298;54.918;73.504;2023-01-23T12:45:39;38.17;;;15.53;;
59486;SDS011;45298;54.918;73.504;2023-01-23T12:48:23;90.65;;;32.88;;
59486;SDS011;45298;54.918;73.504;2023-01-23T12:51:05;70.53;;;25.65;;
59486;SDS011;45298;54.918;73.504;2023-01-23T12:53:38;53.65;;;21.52;;
59486;SDS011;45298;54.918;73.504;2023-01-23T13:07:55;52.08;;;20.58;;
59486;SDS011;45298;54.918;73.504;2023-01-23T13:10:32;55.25;;;19.73;;
59486;SDS011;45298;54.918;73.504;2023-01-23T13:13:29;36.05;;;14.38;;
59486;SDS011;45298;54.918;73.504;2023-01-23T13:16:14;29.92;;;12.93;;
59486;SDS011;45298;54.918;73.504;2023-01-23T13:18:55;51.20;;;21.15;;
59486;SDS011;45298;54.918;73.504;2023-01-23T13:22:11;57.20;;;20.08;;
59486;SDS011;45298;54.918;73.504;2023-01-23T13:24:53;56.33;;;19.60;;
59486;SDS011;45298;54.918;73.504;2023-01-23T13:27:49;51.83;;;20.05;;
59486;SDS011;45298;54.918;73.504;2023-01-23T13:32:59;87.30;;;30.23;;
59486;SDS011;45298;54.918;73.504;2023-01-23T13:43:51;55.67;;;20.58;;
59486;SDS011;45298;54.918;73.504;2023-01-23T13:52:51;28.88;;;10.93;;
59486;SDS011;45298;54.918;73.504;2023-01-23T13:55:52;52.80;;;19.63;;
59486;SDS011;45298;54.918;73.504;2023-01-23T13:58:53;48.45;;;18.90;;
59486;SDS011;45298;54.918;73.504;2023-01-23T14:01:39;38.08;;;13.02;;
59486;SDS011;45298;54.918;73.504;2023-01-23T14:04:52;28.83;;;11.00;;
59486;SDS011;45298;54.918;73.504;2023-01-23T14:08:03;53.90;;;19.85;;
59486;SDS011;45298;54.918;73.504;2023-01-23T14:10:47;36.50;;;14.52;;
59486;SDS011;45298;54.918;73.504;2023-01-23T14:13:30;50.70;;;18.70;;
59486;SDS011;45298;54.918;73.504;2023-01-23T14:16:13;47.38;;;15.20;;
59486;SDS011;45298;54.918;73.504;2023-01-23T14:19:02;48.33;;;16.75;;
59486;SDS011;45298;54.918;73.504;2023-01-23T14:21:48;47.25;;;17.50;;
59486;SDS011;45298;54.918;73.504;2023-01-23T14:24:40;71.22;;;19.55;;
59486;SDS011;45298;54.918;73.504;2023-01-23T14:27:33;60.60;;;19.30;;
59486;SDS011;45298;54.918;73.504;2023-01-23T14:30:20;63.20;;;22.38;;
59486;SDS011;45298;54.918;73.504;2023-01-23T14:32:51;33.65;;;13.07;;
59486;SDS011;45298;54.918;73.504;2023-01-23T14:35:27;34.50;;;12.45;;
59486;SDS011;45298;54.918;73.504;2023-01-23T14:37:59;101.53;;;29.98;;
59486;SDS011;45298;54.918;73.504;2023-01-23T14:40:32;86.17;;;26.67;;
59486;SDS011;45298;54.918;73.504;2023-01-23T14:43:18;92.53;;;30.33;;
59486;SDS011;45298;54.918;73.504;2023-01-23T14:49:05;88.18;;;29.30;;
59486;SDS011;45298;54.918;73.504;2023-01-23T14:51:36;105.53;;;32.22;;
59486;SDS011;45298;54.918;73.504;2023-01-23T14:54:14;55.97;;;19.00;;
59486;SDS011;45298;54.918;73.504;2023-01-23T14:56:49;85.78;;;26.73;;
59486;SDS011;45298;54.918;73.504;2023-01-23T14:59:24;37.00;;;13.98;;
59486;SDS011;45298;54.918;73.504;2023-01-23T15:02:00;66.93;;;20.83;;
59486;SDS011;45298;54.918;73.504;2023-01-23T15:05:04;39.85;;;15.15;;
59486;SDS011;45298;54.918;73.504;2023-01-23T15:07:35;40.08;;;15.82;;
59486;SDS011;45298;54.918;73.504;2023-01-23T15:10:15;44.20;;;17.40;;
59486;SDS011;45298;54.918;73.504;2023-01-23T15:12:59;32.63;;;12.10;;
59486;SDS011;45298;54.918;73.504;2023-01-23T15:15:32;30.35;;;12.07;;
59486;SDS011;45298;54.918;73.504;2023-01-23T15:18:02;52.50;;;18.75;;
59486;SDS011;45298;54.918;73.504;2023-01-23T15:20:53;46.60;;;16.07;;
59486;SDS011;45298;54.918;73.504;2023-01-23T15:23:25;45.25;;;17.33;;
59486;SDS011;45298;54.918;73.504;2023-01-23T15:26:20;40.17;;;14.90;;
59486;SDS011;45298;54.918;73.504;2023-01-23T15:28:56;37.10;;;13.77;;
59486;SDS011;45298;54.918;73.504;2023-01-23T15:31:49;40.70;;;14.43;;
59486;SDS011;45298;54.918;73.504;2023-01-23T15:34:24;49.72;;;18.48;;
59486;SDS011;45298;54.918;73.504;2023-01-23T15:36:59;33.60;;;14.23;;
59486;SDS011;45298;54.918;73.504;2023-01-23T15:39:59;43.88;;;17.23;;
59486;SDS011;45298;54.918;73.504;2023-01-23T15:42:31;22.75;;;10.07;;
59486;SDS011;45298;54.918;73.504;2023-01-23T15:45:04;23.25;;;11.23;;
59486;SDS011;45298;54.918;73.504;2023-01-23T15:47:40;37.55;;;15.20;;
59486;SDS011;45298;54.918;73.504;2023-01-23T15:50:10;30.75;;;13.05;;
59486;SDS011;45298;54.918;73.504;2023-01-23T15:55:15;38.00;;;15.32;;
59486;SDS011;45298;54.918;73.504;2023-01-23T15:57:45;60.80;;;19.13;;
59486;SDS011;45298;54.918;73.504;2023-01-23T16:00:15;52.67;;;16.83;;
59486;SDS011;45298;54.918;73.504;2023-01-23T16:02:45;51.60;;;18.13;;
59486;SDS011;45298;54.918;73.504;2023-01-23T16:05:30;180.02;;;45.92;;
59486;SDS011;45298;54.918;73.504;2023-01-23T16:08:02;94.18;;;25.48;;
59486;SDS011;45298;54.918;73.504;2023-01-23T16:10:34;98.70;;;28.67;;
59486;SDS011;45298;54.918;73.504;2023-01-23T16:13:05;85.45;;;25.30;;
59486;SDS011;45298;54.918;73.504;2023-01-23T16:15:34;138.13;;;35.88;;
59486;SDS011;45298;54.918;73.504;2023-01-23T16:18:06;95.13;;;26.23;;
59486;SDS011;45298;54.918;73.504;2023-01-23T16:20:36;101.28;;;28.77;;
59486;SDS011;45298;54.918;73.504;2023-01-23T16:23:26;98.22;;;28.25;;
59486;SDS011;45298;54.918;73.504;2023-01-23T16:26:18;62.38;;;22.80;;
59486;SDS011;45298;54.918;73.504;2023-01-23T16:28:48;65.18;;;24.10;;
59486;SDS011;45298;54.918;73.504;2023-01-23T16:33:52;42.15;;;16.02;;
59486;SDS011;45298;54.918;73.504;2023-01-23T16:36:20;40.65;;;15.63;;
59486;SDS011;45298;54.918;73.504;2023-01-23T16:38:50;33.25;;;11.77;;
59486;SDS011;45298;54.918;73.504;2023-01-23T16:41:22;33.03;;;14.70;;
59486;SDS011;45298;54.918;73.504;2023-01-23T16:43:51;40.72;;;15.80;;
59486;SDS011;45298;54.918;73.504;2023-01-23T16:46:20;39.90;;;16.02;;
59486;SDS011;45298;54.918;73.504;2023-01-23T16:48:48;67.57;;;21.13;;
59486;SDS011;45298;54.918;73.504;2023-01-23T16:51:21;48.63;;;18.40;;
59486;SDS011;45298;54.918;73.504;2023-01-23T16:53:52;28.20;;;11.10;;
59486;SDS011;45298;54.918;73.504;2023-01-23T16:56:37;51.80;;;16.02;;